Time;durP1;ratioP1;P1;durP2;ratioP2;P2;SDS_P1;SDS_P2;PMS_P1;PMS_P2;Temp;Humidity;BMP_temperature;BMP_pressure;BME280_temperature;BME280_humidity;BME280_pressure;Samples;Min_cycle;Max_cycle;Signal;HPM_P1;HPM_P2
2022/08/20 00:00:36;;;;;;;7.07;5.45;;;;;;;24.71;45.10;95071.31;5029044;28;20100;-84
2022/08/20 00:03:08;;;;;;;6.35;5.57;;;;;;;24.67;45.13;95072.97;5028541;28;20420;-85
2022/08/20 00:05:36;;;;;;;10.57;5.97;;;;;;;24.68;44.99;95064.47;5029254;28;20029;-84
2022/08/20 00:08:02;;;;;;;8.02;5.82;;;;;;;24.68;45.30;95066.41;5028171;28;20025;-83
2022/08/20 00:10:28;;;;;;;11.15;6.13;;;;;;;24.61;45.49;95061.19;5028726;28;20025;-83
2022/08/20 00:12:54;;;;;;;10.68;6.55;;;;;;;24.56;45.68;95064.75;5028589;28;20033;-83
2022/08/20 00:15:21;;;;;;;6.70;5.88;;;;;;;24.53;45.85;95068.06;5027942;28;20067;-84
2022/08/20 00:17:50;;;;;;;9.50;6.05;;;;;;;24.53;45.79;95069.97;5028702;28;20048;-84
2022/08/20 00:20:16;;;;;;;8.45;5.88;;;;;;;24.50;46.00;95062.28;5028748;28;20034;-85
2022/08/20 00:22:41;;;;;;;9.43;5.80;;;;;;;24.48;45.94;95065.31;5029460;28;20034;-84
2022/08/20 00:25:07;;;;;;;7.95;5.57;;;;;;;24.40;46.26;95058.47;5027945;28;20047;-84
2022/08/20 00:27:33;;;;;;;8.23;5.70;;;;;;;24.44;46.23;95066.94;5028795;28;20534;-85
2022/08/20 00:29:58;;;;;;;9.80;5.90;;;;;;;24.49;46.23;95066.16;5028075;28;20029;-85
2022/08/20 00:32:24;;;;;;;8.05;5.85;;;;;;;24.49;46.22;95063.41;5028812;28;20021;-85
2022/08/20 00:34:49;;;;;;;8.55;5.97;;;;;;;24.48;45.87;95061.75;5028477;28;20546;-85
2022/08/20 00:37:15;;;;;;;11.18;5.95;;;;;;;24.47;46.22;95055.47;5028515;28;20034;-84
2022/08/20 00:39:40;;;;;;;7.47;6.15;;;;;;;24.42;46.22;95064.47;5028503;28;20412;-85
2022/08/20 00:42:06;;;;;;;6.85;5.80;;;;;;;24.46;46.26;95059.28;5027439;28;20029;-85
2022/08/20 00:44:31;;;;;;;10.95;6.07;;;;;;;24.39;46.41;95056.00;5028489;28;20025;-84
2022/08/20 00:46:57;;;;;;;16.58;6.40;;;;;;;24.39;46.15;95056.81;5027441;28;20087;-84
2022/08/20 00:49:28;;;;;;;7.78;5.45;;;;;;;24.40;46.40;95052.16;5028337;28;20018;-84
2022/08/20 00:52:12;;;;;;;8.63;6.22;;;;;;;24.34;46.44;95050.53;5027622;28;20037;-84
2022/08/20 00:54:41;;;;;;;8.13;5.95;;;;;;;24.26;46.61;95052.69;5026137;28;20482;-84
2022/08/20 00:57:09;;;;;;;9.93;5.55;;;;;;;24.22;46.82;95042.56;5027786;28;20105;-83
2022/08/20 00:59:36;;;;;;;8.45;6.03;;;;;;;24.29;46.69;95045.88;5026369;28;20036;-84
2022/08/20 01:02:02;;;;;;;6.72;5.43;;;;;;;24.19;46.89;95033.00;5027643;28;20144;-84
2022/08/20 01:04:30;;;;;;;7.90;5.70;;;;;;;24.20;46.97;95037.34;5026931;28;20040;-84
2022/08/20 01:06:56;;;;;;;7.43;6.05;;;;;;;24.13;46.93;95026.66;5026982;28;20029;-84
2022/08/20 01:09:22;;;;;;;9.05;6.13;;;;;;;24.11;47.02;95028.03;5028037;28;20409;-83
2022/08/20 01:11:47;;;;;;;8.73;6.57;;;;;;;24.07;47.68;95023.09;5027164;28;20397;-84
2022/08/20 01:16:48;;;;;;;7.85;6.70;;;;;;;24.13;47.24;95031.31;5011986;28;20033;-84
2022/08/20 01:19:14;;;;;;;9.13;5.97;;;;;;;24.15;47.31;95026.41;5010869;28;20056;-84
2022/08/20 01:21:39;;;;;;;8.52;6.55;;;;;;;24.08;47.37;95027.47;5027810;28;20412;-84
2022/08/20 01:24:14;;;;;;;9.35;6.13;;;;;;;24.12;47.36;95027.75;5027665;28;20526;-84
2022/08/20 01:26:42;;;;;;;8.75;6.07;;;;;;;24.19;47.38;95024.75;5025916;28;20049;-84
2022/08/20 01:29:13;;;;;;;9.15;5.85;;;;;;;24.22;47.32;95028.88;5026195;28;20033;-85
2022/08/20 01:31:39;;;;;;;8.02;5.82;;;;;;;24.20;47.12;95020.91;5026141;28;20424;-85
2022/08/20 01:34:07;;;;;;;9.25;5.88;;;;;;;24.28;47.00;95023.13;5027421;28;20559;-84
2022/08/20 01:36:40;;;;;;;11.10;6.10;;;;;;;24.23;47.08;95027.78;5027833;28;20026;-86
2022/08/20 01:39:08;;;;;;;7.40;6.28;;;;;;;24.12;47.22;95018.72;5026915;28;20026;-84
2022/08/20 01:42:04;;;;;;;7.43;6.18;;;;;;;24.13;47.41;95020.34;5027839;28;20028;-84
2022/08/20 01:44:29;;;;;;;10.43;6.07;;;;;;;24.06;47.57;95018.72;5027691;28;20120;-84
2022/08/20 01:46:56;;;;;;;11.77;5.82;;;;;;;23.99;47.99;95020.88;5027805;28;20113;-85
2022/08/20 01:49:23;;;;;;;10.70;5.70;;;;;;;23.89;47.81;95004.47;5026901;28;20048;-85
2022/08/20 01:51:49;;;;;;;8.23;6.18;;;;;;;23.78;47.93;95009.91;5027581;28;20025;-84
2022/08/20 01:54:15;;;;;;;8.32;6.13;;;;;;;23.73;48.32;95012.66;5027854;28;20032;-85
2022/08/20 01:57:11;;;;;;;7.53;6.35;;;;;;;23.74;48.30;95008.00;5029351;28;20025;-83
2022/08/20 01:59:36;;;;;;;9.57;6.45;;;;;;;23.74;48.67;95003.34;5035323;28;20052;-84
2022/08/20 02:02:02;;;;;;;10.57;7.00;;;;;;;23.83;48.42;95006.38;5035761;28;20352;-84
2022/08/20 02:04:27;;;;;;;10.50;6.32;;;;;;;23.79;48.54;95006.09;5029602;28;20036;-84
2022/08/20 02:06:55;;;;;;;9.13;6.47;;;;;;;23.87;48.24;95017.59;5026653;28;20072;-85
2022/08/20 02:09:21;;;;;;;7.50;6.32;;;;;;;23.96;48.11;95015.97;5026639;28;20049;-83
2022/08/20 02:11:46;;;;;;;8.70;6.60;;;;;;;23.92;48.34;95010.19;5026916;28;20068;-85
2022/08/20 02:14:12;;;;;;;8.23;6.53;;;;;;;23.92;48.18;95007.47;5026819;28;20558;-85
2022/08/20 02:16:39;;;;;;;8.63;5.72;;;;;;;23.91;48.01;94999.53;5026902;28;20100;-85
2022/08/20 02:19:11;;;;;;;9.02;6.38;;;;;;;23.88;48.02;95002.81;5027463;28;20034;-84
2022/08/20 02:21:37;;;;;;;;;;;;;;;23.89;48.27;95004.47;5026345;28;20040;-83
2022/08/20 02:24:03;;;;;;;9.18;6.45;;;;;;;23.81;48.50;94998.44;5026579;28;19963;-84
2022/08/20 02:26:29;;;;;;;7.35;5.68;;;;;;;23.77;48.58;94997.34;5026612;28;20045;-84
2022/08/20 02:28:54;;;;;;;6.43;5.75;;;;;;;23.79;48.64;95005.28;5009154;28;20026;-84
2022/08/20 02:31:20;;;;;;;11.82;6.13;;;;;;;23.76;49.07;95009.41;5026340;28;20032;-84
2022/08/20 02:33:46;;;;;;;8.48;6.10;;;;;;;23.77;48.65;95007.47;5026845;28;20033;-84
2022/08/20 02:36:12;;;;;;;8.80;6.30;;;;;;;23.77;49.08;95005.56;5026445;28;20609;-84
2022/08/20 02:38:38;;;;;;;10.30;6.43;;;;;;;23.77;48.83;95008.28;5025793;28;20450;-84
2022/08/20 02:41:04;;;;;;;7.22;5.95;;;;;;;23.85;48.78;95003.34;5026741;28;20834;-84
2022/08/20 02:43:31;;;;;;;9.98;6.85;;;;;;;23.82;48.85;95012.94;5026796;28;20028;-84
2022/08/20 02:45:58;;;;;;;9.40;6.55;;;;;;;23.80;49.04;95013.22;5026141;28;20030;-84
2022/08/20 02:48:24;;;;;;;12.48;6.57;;;;;;;23.85;48.47;95006.09;5026757;28;20049;-84
2022/08/20 02:50:54;;;;;;;13.50;7.07;;;;;;;23.83;48.53;95009.94;5026940;28;20408;-84
2022/08/20 02:53:20;;;;;;;10.77;7.15;;;;;;;23.82;48.53;95016.50;5026393;28;20080;-84
2022/08/20 02:55:45;;;;;;;9.25;6.97;;;;;;;23.88;48.13;95013.75;5026664;28;20022;-84
2022/08/20 02:58:11;;;;;;;8.07;6.75;;;;;;;23.85;48.51;95025.25;5026403;28;20018;-84
2022/08/20 03:00:36;;;;;;;11.23;7.00;;;;;;;23.76;48.90;95027.72;5026586;28;20411;-85
2022/08/20 03:03:02;;;;;;;13.20;6.97;;;;;;;23.73;49.21;95029.06;5027590;28;20021;-84
2022/08/20 03:05:27;;;;;;;8.70;7.45;;;;;;;23.72;49.65;95024.69;5027096;28;20025;-84
2022/08/20 03:07:54;;;;;;;8.23;6.75;;;;;;;23.69;49.07;95036.19;5026284;28;20030;-84
2022/08/20 03:10:24;;;;;;;9.82;7.32;;;;;;;23.63;49.29;95026.31;5027221;28;20026;-84
2022/08/20 03:12:51;;;;;;;12.77;7.25;;;;;;;23.57;49.47;95026.31;5026656;28;20036;-85
2022/08/20 03:15:17;;;;;;;9.20;6.50;;;;;;;23.52;49.66;95030.97;5026671;28;20087;-84
2022/08/20 03:17:42;;;;;;;9.30;7.63;;;;;;;23.49;49.64;95029.56;5029395;28;20834;-84
2022/08/20 03:20:09;;;;;;;10.65;7.28;;;;;;;23.42;49.99;95018.91;5030365;28;20026;-84
2022/08/20 03:22:35;;;;;;;8.65;7.07;;;;;;;23.29;49.88;95020.19;5030642;28;20044;-85
2022/08/20 03:25:02;;;;;;;11.38;6.95;;;;;;;23.32;49.84;95027.88;5030016;28;20484;-86
2022/08/20 03:27:27;;;;;;;10.40;8.02;;;;;;;23.28;50.09;95026.75;5029070;28;20049;-84
2022/08/20 03:29:52;;;;;;;9.95;6.88;;;;;;;23.21;50.25;95021.50;5029790;28;20030;-84
2022/08/20 03:32:18;;;;;;;10.68;7.20;;;;;;;23.19;50.62;95022.88;5030349;28;20029;-84
2022/08/20 03:34:43;;;;;;;12.18;7.40;;;;;;;23.10;50.67;95019.84;5029287;28;20036;-85
2022/08/20 03:37:10;;;;;;;11.93;7.50;;;;;;;23.04;50.84;95027.19;5029776;28;20214;-84
2022/08/20 03:39:36;;;;;;;10.27;7.25;;;;;;;22.95;51.04;95032.38;5030204;28;20499;-85
2022/08/20 03:42:02;;;;;;;9.07;7.20;;;;;;;22.97;51.00;95034.84;5029613;28;20055;-84
2022/08/20 03:44:27;;;;;;;9.70;8.00;;;;;;;22.90;51.11;95040.53;5029767;28;20646;-84
2022/08/20 03:46:53;;;;;;;13.98;7.88;;;;;;;22.87;51.14;95034.78;5029231;28;20029;-84
2022/08/20 03:49:18;;;;;;;15.90;7.95;;;;;;;22.84;51.67;95045.13;5030422;28;20492;-85
2022/08/20 03:51:44;;;;;;;10.43;7.93;;;;;;;22.84;51.55;95045.13;5040953;28;20017;-85
2022/08/20 03:54:09;;;;;;;12.93;8.90;;;;;;;22.81;51.42;95048.41;5042458;28;20025;-84
2022/08/20 03:56:34;;;;;;;14.38;8.07;;;;;;;22.80;51.54;95046.78;5042961;28;20431;-83
2022/08/20 03:59:00;;;;;;;9.80;7.60;;;;;;;22.82;51.50;95052.81;5044656;28;20017;-84
2022/08/20 04:01:25;;;;;;;17.02;8.10;;;;;;;22.84;51.31;95052.53;5043882;28;20044;-84
2022/08/20 04:03:51;;;;;;;10.13;7.70;;;;;;;22.85;51.33;95051.44;5043549;28;20542;-84
2022/08/20 04:06:17;;;;;;;9.88;8.15;;;;;;;22.89;51.14;95047.06;5034910;28;20034;-84
2022/08/20 04:08:42;;;;;;;10.05;7.78;;;;;;;22.94;51.26;95046.31;5038286;28;20025;-84
2022/08/20 04:11:08;;;;;;;12.90;8.30;;;;;;;22.87;51.26;95037.50;5033882;28;20026;-84
2022/08/20 04:13:33;;;;;;;9.13;7.25;;;;;;;22.91;51.54;95046.84;5032869;28;20033;-83
2022/08/20 04:16:02;;;;;;;8.48;7.50;;;;;;;22.92;51.17;95045.75;5029574;28;20056;-84
2022/08/20 04:18:28;;;;;;;11.13;8.10;;;;;;;22.93;51.31;95056.41;5030007;28;20083;-84
2022/08/20 04:20:54;;;;;;;10.85;7.65;;;;;;;22.91;51.33;95055.03;5029596;28;20065;-84
2022/08/20 04:23:20;;;;;;;10.35;7.35;;;;;;;22.89;51.44;95054.47;5029773;28;20545;-85
2022/08/20 04:25:45;;;;;;;12.35;7.72;;;;;;;22.92;51.14;95052.03;5029364;28;20132;-84
2022/08/20 04:28:13;;;;;;;10.40;8.35;;;;;;;22.87;51.28;95053.91;5028469;28;20030;-84
2022/08/20 04:30:39;;;;;;;11.55;7.97;;;;;;;22.81;51.65;95050.34;5029197;28;20411;-84
2022/08/20 04:33:04;;;;;;;12.85;7.80;;;;;;;22.77;51.78;95044.56;5029871;28;20770;-84
2022/08/20 04:35:30;;;;;;;13.48;8.35;;;;;;;22.78;51.53;95057.13;5029207;28;20025;-84
2022/08/20 04:38:05;;;;;;;12.40;8.25;;;;;;;22.70;52.40;95058.47;5028370;28;20424;-84
2022/08/20 04:43:15;;;;;;;18.70;8.30;;;;;;;22.81;52.52;95053.06;5027935;28;20032;-84
2022/08/20 04:45:40;;;;;;;12.68;7.75;;;;;;;22.89;52.44;95054.47;5029696;28;20025;-84
2022/08/20 04:48:06;;;;;;;10.52;7.55;;;;;;;22.99;53.26;95061.91;5028533;28;20088;-84
2022/08/20 04:50:35;;;;;;;10.90;8.10;;;;;;;23.03;52.66;95063.00;5028118;28;20021;-84
2022/08/20 04:53:02;;;;;;;15.15;7.90;;;;;;;23.14;52.37;95066.63;5028558;28;20119;-84
2022/08/20 04:55:29;;;;;;;11.20;7.75;;;;;;;23.18;52.04;95051.34;5029194;28;20029;-84
2022/08/20 04:57:56;;;;;;;11.35;7.75;;;;;;;23.27;51.35;95055.19;5028540;28;20061;-83
2022/08/20 05:00:22;;;;;;;13.45;8.02;;;;;;;23.39;51.45;95056.91;5028212;28;20167;-85
2022/08/20 05:02:48;;;;;;;11.43;9.20;;;;;;;23.44;50.68;95060.47;5028958;28;20513;-85
2022/08/20 05:05:13;;;;;;;12.32;9.35;;;;;;;23.36;51.21;95051.94;5028693;28;20048;-84
2022/08/20 05:07:41;;;;;;;12.40;8.82;;;;;;;23.46;51.10;95057.47;5030362;28;20029;-84
2022/08/20 05:10:08;;;;;;;11.27;8.38;;;;;;;23.52;50.57;95067.34;5028884;28;20120;-83
2022/08/20 05:12:33;;;;;;;11.02;8.80;;;;;;;23.65;50.53;95062.47;5033434;28;20035;-84
2022/08/20 05:14:59;;;;;;;11.40;8.25;;;;;;;23.75;50.22;95057.00;5028235;28;20033;-84
2022/08/20 05:17:24;;;;;;;12.65;8.65;;;;;;;23.82;50.13;95046.63;5028665;28;20406;-84
2022/08/20 05:19:51;;;;;;;11.20;8.05;;;;;;;24.02;50.32;95058.69;5028232;28;20033;-84
2022/08/20 05:22:17;;;;;;;9.85;7.75;;;;;;;24.12;49.66;95051.59;5027880;28;20033;-84
2022/08/20 05:24:43;;;;;;;18.88;8.30;;;;;;;24.20;49.60;95060.09;5028509;28;20079;-84
2022/08/20 05:27:08;;;;;;;10.75;8.40;;;;;;;24.35;49.75;95057.63;5027818;28;20045;-85
2022/08/20 05:29:34;;;;;;;8.90;7.40;;;;;;;24.37;49.79;95060.94;5028294;28;20400;-83
2022/08/20 05:31:59;;;;;;;14.43;8.18;;;;;;;24.35;49.52;95057.63;5027941;28;20057;-84
2022/08/20 05:34:25;;;;;;;9.15;7.40;;;;;;;24.49;49.46;95055.97;5028352;28;20028;-84
2022/08/20 05:36:51;;;;;;;13.75;8.60;;;;;;;24.62;49.39;95060.09;5027799;28;20052;-84
2022/08/20 05:39:18;;;;;;;9.05;7.85;;;;;;;24.73;49.41;95044.44;5027523;28;20063;-85
2022/08/20 05:41:43;;;;;;;9.50;7.68;;;;;;;24.87;49.72;95038.38;5027823;28;20021;-85
2022/08/20 05:44:11;;;;;;;15.55;8.43;;;;;;;24.96;50.02;95044.97;5027597;28;20026;-84
2022/08/20 05:46:40;;;;;;;10.43;7.82;;;;;;;25.08;49.34;95041.91;5027992;28;20029;-84
2022/08/20 05:49:10;;;;;;;11.48;8.25;;;;;;;25.17;49.36;95040.25;5027582;28;20454;-83
2022/08/20 05:51:36;;;;;;;13.10;7.80;;;;;;;25.28;49.46;95042.91;5027459;28;20033;-84
2022/08/20 05:54:02;;;;;;;10.43;8.10;;;;;;;25.28;48.48;95046.50;5027396;28;20033;-84
2022/08/20 05:56:29;;;;;;;13.30;8.45;;;;;;;25.33;48.54;95034.66;5028091;28;20025;-84
2022/08/20 05:58:54;;;;;;;12.63;7.80;;;;;;;25.40;48.64;95037.94;5027170;28;20104;-85
2022/08/20 06:01:19;;;;;;;12.35;7.90;;;;;;;25.48;48.19;95030.22;5027006;28;20022;-84
2022/08/20 06:06:29;;;;;;;9.63;7.18;;;;;;;25.73;48.15;95032.03;5027200;28;20143;-84
2022/08/20 06:08:55;;;;;;;13.90;8.02;;;;;;;25.63;47.97;95038.38;5028595;28;20033;-84
2022/08/20 06:11:21;;;;;;;10.82;7.78;;;;;;;25.68;47.45;95030.13;5027637;28;20093;-84
2022/08/20 06:13:47;;;;;;;13.02;7.80;;;;;;;25.76;47.20;95033.41;5026737;28;20454;-84
2022/08/20 06:16:12;;;;;;;9.57;8.05;;;;;;;25.70;47.18;95032.59;5026732;28;20481;-84
2022/08/20 06:18:38;;;;;;;9.48;7.60;;;;;;;25.70;47.30;95031.78;5027470;28;20469;-84
2022/08/20 06:21:04;;;;;;;9.77;7.13;;;;;;;25.73;47.25;95036.72;5027404;28;20463;-85
2022/08/20 06:23:29;;;;;;;16.48;8.52;;;;;;;25.97;47.21;95044.25;5026118;28;20560;-85
2022/08/20 06:25:54;;;;;;;10.82;7.57;;;;;;;26.05;46.89;95038.16;5027372;28;20041;-85
2022/08/20 06:28:20;;;;;;;10.05;7.35;;;;;;;26.25;46.45;95037.16;5027024;28;20022;-85
2022/08/20 06:30:46;;;;;;;9.27;7.20;;;;;;;26.42;46.13;95035.97;5029465;28;20020;-83
2022/08/20 06:33:11;;;;;;;15.40;7.90;;;;;;;26.47;45.44;95024.09;5027041;28;20527;-85
2022/08/20 06:35:37;;;;;;;12.20;8.07;;;;;;;26.48;45.89;95031.22;5028521;28;20048;-85
2022/08/20 06:38:04;;;;;;;14.07;7.28;;;;;;;26.60;45.84;95031.66;5027991;28;20076;-85
2022/08/20 06:40:29;;;;;;;9.95;7.05;;;;;;;26.76;45.48;95021.31;5029329;28;20029;-84
2022/08/20 06:42:55;;;;;;;14.70;8.20;;;;;;;26.89;45.40;95019.81;5028981;28;20139;-85
2022/08/20 06:45:26;;;;;;;13.18;7.82;;;;;;;27.07;45.72;95025.69;5027829;28;20392;-84
2022/08/20 06:47:52;;;;;;;10.10;8.13;;;;;;;27.03;45.09;95022.72;5027870;28;20083;-85
2022/08/20 06:50:21;;;;;;;13.32;8.07;;;;;;;27.09;44.64;95017.97;5027174;28;20029;-85
2022/08/20 06:52:46;;;;;;;14.90;7.60;;;;;;;27.19;44.98;95017.03;5030181;28;20080;-85
2022/08/20 06:55:13;;;;;;;11.00;7.95;;;;;;;27.31;43.63;95015.78;5030912;28;20447;-85
2022/08/20 06:57:38;;;;;;;15.10;7.55;;;;;;;27.39;45.09;95012.38;5030270;28;20025;-85
2022/08/20 07:00:15;;;;;;;12.40;7.53;;;;;;;27.38;44.00;95010.72;5030609;28;20129;-85
2022/08/20 07:02:40;;;;;;;12.10;7.70;;;;;;;27.24;44.15;95013.38;5030954;28;20043;-85
2022/08/20 07:05:06;;;;;;;12.95;8.02;;;;;;;27.35;44.49;95006.66;5031388;28;20100;-85
2022/08/20 07:07:33;;;;;;;13.00;8.45;;;;;;;27.37;44.83;95007.19;5030144;28;20520;-85
2022/08/20 07:10:04;;;;;;;11.45;7.35;;;;;;;27.30;44.60;95008.63;5030745;28;20527;-84
2022/08/20 07:12:29;;;;;;;11.13;7.72;;;;;;;27.36;44.64;94997.25;5029879;28;20028;-84
2022/08/20 07:14:55;;;;;;;11.98;8.05;;;;;;;27.43;44.32;95007.09;5030014;28;20025;-84
2022/08/20 07:17:20;;;;;;;12.00;8.00;;;;;;;27.43;44.88;94991.41;5030091;28;20042;-84
2022/08/20 07:19:46;;;;;;;14.10;7.90;;;;;;;27.52;44.69;94992.34;5030108;28;20029;-85
2022/08/20 07:22:12;;;;;;;13.40;8.07;;;;;;;27.45;44.82;94991.09;5030197;28;20041;-85
2022/08/20 07:24:38;;;;;;;12.52;7.80;;;;;;;27.67;44.81;94984.16;5030098;28;20056;-84
2022/08/20 07:27:03;;;;;;;11.50;7.22;;;;;;;27.81;45.00;94989.81;5029090;28;20116;-85
2022/08/20 07:32:33;;;;;;;11.70;7.70;;;;;;;27.94;43.90;94982.72;5029819;28;20528;-85
2022/08/20 07:32:47;;;;;;;11.18;6.82;;;;;;;28.06;43.13;94982.22;5029912;28;20120;-84
2022/08/20 07:35:07;;;;;;;9.60;7.43;;;;;;;28.09;42.93;94984.38;5030480;28;20934;-84
2022/08/20 07:37:40;;;;;;;13.70;7.68;;;;;;;28.09;42.99;94987.97;5029431;28;20021;-85
2022/08/20 07:40:07;;;;;;;9.23;6.38;;;;;;;28.10;42.54;94980.53;5030118;28;20021;-85
2022/08/20 07:42:33;;;;;;;10.52;6.90;;;;;;;28.17;42.18;94975.44;5029125;28;20033;-83
2022/08/20 07:44:58;;;;;;;8.25;7.40;;;;;;;28.24;42.28;94977.81;5029778;28;20126;-85
2022/08/20 07:47:24;;;;;;;14.30;6.28;;;;;;;28.25;41.60;94973.91;5028946;28;20318;-84
2022/08/20 07:49:49;;;;;;;10.88;7.85;;;;;;;28.25;42.15;94980.25;5029696;28;20029;-85
2022/08/20 07:52:15;;;;;;;8.23;7.35;;;;;;;28.30;41.99;94973.00;5028926;28;20025;-85
2022/08/20 07:54:41;;;;;;;9.63;7.00;;;;;;;28.37;41.97;94979.00;5029142;28;20057;-85
2022/08/20 07:57:07;;;;;;;8.98;7.05;;;;;;;28.50;41.57;94977.41;5029091;28;20092;-85
2022/08/20 07:59:33;;;;;;;14.77;7.28;;;;;;;28.64;41.61;94982.94;5028804;28;20068;-85
2022/08/20 08:01:58;;;;;;;8.88;7.20;;;;;;;28.68;41.49;94981.19;5028607;28;20044;-86
2022/08/20 08:04:24;;;;;;;8.75;7.68;;;;;;;28.74;40.77;94973.63;5029069;28;20041;-86
2022/08/20 08:06:50;;;;;;;11.43;7.18;;;;;;;28.78;41.31;94982.13;5029475;28;20412;-86
2022/08/20 08:09:15;;;;;;;12.75;7.25;;;;;;;28.92;41.36;94980.19;5028086;28;20080;-85
2022/08/20 08:11:47;;;;;;;9.65;7.22;;;;;;;28.95;40.43;94976.81;5028777;28;20036;-84
2022/08/20 08:14:13;;;;;;;11.63;7.25;;;;;;;28.98;40.66;94984.53;5027086;28;20059;-85
2022/08/20 08:16:38;;;;;;;12.88;7.57;;;;;;;29.03;40.15;94972.56;5010808;28;20025;-85
2022/08/20 08:19:05;;;;;;;9.40;6.57;;;;;;;29.01;40.17;94969.28;5028737;28;20091;-85
2022/08/20 08:21:31;;;;;;;8.27;6.95;;;;;;;29.06;40.47;94971.13;5027068;28;20096;-85
2022/08/20 08:23:57;;;;;;;10.48;7.65;;;;;;;29.39;40.38;94965.44;5029095;28;20057;-85
2022/08/20 08:26:24;;;;;;;9.90;7.65;;;;;;;29.44;39.80;94962.56;5027787;28;20053;-85
2022/08/20 08:28:50;;;;;;;9.55;7.88;;;;;;;29.51;39.26;94964.09;5028931;28;20029;-85
2022/08/20 08:31:15;;;;;;;11.85;7.13;;;;;;;29.52;39.69;94954.69;5027831;28;20048;-84
2022/08/20 08:33:41;;;;;;;10.38;7.32;;;;;;;29.54;39.42;94950.47;5028298;28;20072;-85
2022/08/20 08:36:08;;;;;;;8.75;7.50;;;;;;;29.56;39.32;94956.53;5028040;28;20025;-85
2022/08/20 08:38:34;;;;;;;11.30;8.27;;;;;;;29.65;39.20;94947.53;5026219;28;20534;-84
2022/08/20 08:41:30;;;;;;;10.25;6.97;;;;;;;29.68;39.50;94946.91;5028538;28;20014;-85
2022/08/20 08:44:11;;;;;;;9.30;7.43;;;;;;;29.67;38.75;94946.06;5028567;28;20096;-85
2022/08/20 08:46:43;;;;;;;10.38;7.57;;;;;;;29.54;38.74;94941.38;5027980;28;20513;-85
2022/08/20 08:49:11;;;;;;;11.35;7.80;;;;;;;29.64;39.36;94934.81;5026520;28;20025;-85
2022/08/20 08:51:43;;;;;;;8.20;7.30;;;;;;;29.51;38.79;94930.94;5009918;28;20520;-85
2022/08/20 08:54:15;;;;;;;8.07;7.20;;;;;;;29.65;39.06;94931.75;5027086;28;20112;-85
2022/08/20 08:56:42;;;;;;;11.35;7.13;;;;;;;29.85;38.35;94935.97;5010220;28;20029;-85
2022/08/20 08:59:07;;;;;;;8.55;6.80;;;;;;;30.01;38.36;94927.31;5028068;28;20033;-85
2022/08/20 09:01:35;;;;;;;9.85;7.00;;;;;;;30.07;38.03;94926.03;5027357;28;20484;-85
2022/08/20 09:04:01;;;;;;;10.32;7.00;;;;;;;29.93;37.39;94925.28;5026873;28;20456;-86
2022/08/20 09:06:27;;;;;;;11.80;7.32;;;;;;;30.10;38.13;94919.88;5028013;28;20503;-85
2022/08/20 09:08:55;;;;;;;13.30;6.95;;;;;;;30.19;37.16;94922.75;5026248;28;20025;-87
2022/08/20 09:11:21;;;;;;;11.18;7.07;;;;;;;30.23;37.46;94923.72;5026661;28;20022;-85
2022/08/20 09:13:47;;;;;;;8.95;7.35;;;;;;;30.27;37.01;94918.38;5026741;28;20124;-85
2022/08/20 09:16:13;;;;;;;9.25;6.68;;;;;;;30.20;36.46;94924.38;5027860;28;20037;-85
2022/08/20 09:18:38;;;;;;;10.05;6.90;;;;;;;30.23;36.87;94923.72;5027953;28;20373;-84
2022/08/20 09:21:05;;;;;;;10.60;6.80;;;;;;;30.20;36.80;94924.38;5028389;28;20026;-84
2022/08/20 09:23:30;;;;;;;8.75;7.05;;;;;;;30.31;37.60;94929.66;5027871;28;20112;-85
2022/08/20 09:25:56;;;;;;;9.38;7.45;;;;;;;30.47;35.84;94927.28;5027968;28;20564;-84
2022/08/20 09:28:21;;;;;;;11.77;7.00;;;;;;;30.43;35.87;94915.22;5027407;28;20513;-85
2022/08/20 09:30:47;;;;;;;12.02;7.10;;;;;;;30.46;36.36;94920.09;5027260;28;20034;-84
2022/08/20 09:33:12;;;;;;;9.45;6.80;;;;;;;30.42;36.23;94913.59;5027739;28;20029;-84
2022/08/20 09:35:39;;;;;;;8.60;6.75;;;;;;;30.52;37.17;94912.50;5026986;28;20030;-85
2022/08/20 09:38:04;;;;;;;11.18;6.80;;;;;;;30.49;35.77;94902.88;5028072;28;20079;-84
2022/08/20 09:40:30;;;;;;;7.85;7.00;;;;;;;30.51;36.87;94905.31;5027631;28;20021;-86
2022/08/20 09:42:55;;;;;;;8.07;7.05;;;;;;;30.52;36.46;94898.66;5027425;28;20060;-85
2022/08/20 09:45:21;;;;;;;11.20;6.72;;;;;;;30.56;36.50;94903.25;5027453;28;20416;-85
2022/08/20 09:47:46;;;;;;;8.68;7.13;;;;;;;30.47;36.55;94899.63;5027406;28;20030;-85
2022/08/20 09:50:12;;;;;;;7.78;6.97;;;;;;;30.51;36.52;94902.53;5027469;28;20034;-85
2022/08/20 09:52:41;;;;;;;9.75;6.85;;;;;;;30.54;36.27;94890.84;5027205;28;20030;-85
2022/08/20 09:55:34;;;;;;;8.80;6.18;;;;;;;30.56;35.24;94894.13;5026340;28;20075;-86
2022/08/20 09:58:01;;;;;;;8.55;6.32;;;;;;;30.56;34.97;94897.69;5042475;28;20123;-85
2022/08/20 10:00:26;;;;;;;8.98;6.40;;;;;;;30.62;35.20;94901.13;5034124;28;20052;-84
2022/08/20 10:02:51;;;;;;;10.35;6.60;;;;;;;30.61;35.18;94910.56;5024623;28;20026;-84
2022/08/20 10:05:17;;;;;;;9.98;6.82;;;;;;;30.58;34.22;94898.19;5026852;28;20082;-84
2022/08/20 10:07:42;;;;;;;10.48;6.97;;;;;;;30.60;35.11;94903.41;5026419;28;20036;-86
2022/08/20 10:10:10;;;;;;;7.85;7.00;;;;;;;30.63;34.74;94899.19;5026188;28;20109;-85
2022/08/20 10:12:36;;;;;;;7.20;6.45;;;;;;;30.62;35.09;94901.13;5026925;28;20029;-85
2022/08/20 10:15:01;;;;;;;7.53;6.82;;;;;;;30.65;35.66;94892.19;5024655;28;20022;-84
2022/08/20 10:17:27;;;;;;;11.43;6.75;;;;;;;30.78;34.97;94893.22;5027130;28;20447;-86
2022/08/20 10:19:52;;;;;;;9.80;6.72;;;;;;;30.86;33.86;94883.31;5026357;28;20021;-87
2022/08/20 10:22:18;;;;;;;9.43;6.60;;;;;;;30.99;35.03;94886.31;5025557;28;20044;-85
2022/08/20 10:24:43;;;;;;;8.77;6.70;;;;;;;30.90;34.01;94895.41;5026430;28;20455;-84
2022/08/20 10:27:09;;;;;;;7.18;6.47;;;;;;;30.88;34.00;94888.53;5025487;28;20072;-85
2022/08/20 10:29:34;;;;;;;11.88;6.90;;;;;;;30.91;32.94;94885.94;5026951;28;20416;-85
2022/08/20 10:32:11;;;;;;;7.38;6.18;;;;;;;30.95;33.60;94881.38;5026281;28;20412;-85
2022/08/20 10:34:38;;;;;;;10.90;6.88;;;;;;;31.08;33.56;94884.38;5027303;28;20052;-86
2022/08/20 10:37:03;;;;;;;7.13;6.30;;;;;;;31.08;33.01;94878.84;5027029;28;20503;-84
2022/08/20 10:39:29;;;;;;;7.20;6.47;;;;;;;31.16;33.22;94877.22;5035798;28;20018;-84
2022/08/20 10:41:54;;;;;;;9.15;6.55;;;;;;;31.12;33.09;94878.97;5025669;28;20039;-85
2022/08/20 10:44:19;;;;;;;9.57;6.68;;;;;;;31.08;33.30;94873.28;5025985;28;20037;-84
2022/08/20 10:46:45;;;;;;;9.15;6.78;;;;;;;31.02;33.24;94874.59;5026330;28;20040;-84
2022/08/20 10:49:11;;;;;;;8.48;6.80;;;;;;;31.13;34.51;94870.34;5026083;28;20396;-85
2022/08/20 10:51:36;;;;;;;10.75;6.50;;;;;;;31.18;34.02;94861.88;5026504;28;20424;-85
2022/08/20 10:54:02;;;;;;;10.32;6.78;;;;;;;31.36;33.46;94866.66;5025309;28;20030;-86
2022/08/20 10:56:27;;;;;;;10.75;6.22;;;;;;;31.32;33.27;94860.94;5026519;28;20029;-85
2022/08/20 10:58:52;;;;;;;10.73;6.32;;;;;;;31.27;34.23;94858.31;5025223;28;20026;-86
2022/08/20 11:01:18;;;;;;;9.18;6.38;;;;;;;31.41;33.63;94853.47;5026189;28;20037;-85
2022/08/20 11:03:43;;;;;;;8.30;6.78;;;;;;;31.61;32.98;94851.19;5025873;28;20030;-85
2022/08/20 11:06:09;;;;;;;8.93;5.90;;;;;;;31.60;32.50;94846.75;5025807;28;20045;-85
2022/08/20 11:08:34;;;;;;;11.15;6.53;;;;;;;31.64;32.51;94847.75;5026221;28;20026;-85
2022/08/20 11:11:00;;;;;;;9.85;7.28;;;;;;;31.68;32.89;94845.94;5025448;28;20025;-85
2022/08/20 11:13:25;;;;;;;8.07;6.30;;;;;;;31.66;32.21;94850.19;5025168;28;20064;-85
2022/08/20 11:15:51;;;;;;;8.77;6.55;;;;;;;31.62;31.74;94841.72;5025628;28;20561;-86
2022/08/20 11:18:17;;;;;;;9.60;6.60;;;;;;;31.57;32.03;94839.09;5026183;28;20044;-86
2022/08/20 11:20:42;;;;;;;8.32;6.47;;;;;;;31.64;32.13;94836.66;5025751;28;20076;-86
2022/08/20 11:23:08;;;;;;;8.48;6.53;;;;;;;31.68;32.10;94834.84;5025896;28;20499;-86
2022/08/20 11:25:33;;;;;;;8.82;6.50;;;;;;;31.76;32.01;94824.91;5025491;28;20392;-86
2022/08/20 11:27:59;;;;;;;9.27;6.38;;;;;;;31.79;32.36;94824.25;5025244;28;20033;-86
2022/08/20 11:30:29;;;;;;;8.27;6.20;;;;;;;31.81;31.86;94812.81;5025996;28;20029;-85
2022/08/20 11:32:55;;;;;;;8.80;6.35;;;;;;;31.89;31.76;94809.22;5007279;28;20022;-85
2022/08/20 11:35:22;;;;;;;8.95;6.72;;;;;;;31.85;31.89;94799.94;5026542;28;20408;-85